Weather observations for the past three days for
Port Isabel, Port Isabel-Cameron County Airport
Metric (Imperial)
Date Time (cdt) Wind (kph) Vis. (km) Weather Sky Cond. Temperature (ºC) Relative Humidity Wind Chill (°C) Heat Index (°C) Pressure Precipitation (cm)
Air Dwpt 6 hour altimeter (cm) sea level (mb) 1 hr 3 hr 6 hr
Max. Min.
01 20:53 SE 20 16.09 A Few Clouds FEW023 29.4 25.6 80% 36 75.97 1012.9
01 19:53 SE 19 16.09 Partly Cloudy SCT022 30 25.6 77% 37 75.95 1012.5
01 18:53 SE 28 16.09 Fair CLR 31.1 25 35.6 31.1 70% 38 75.92 1012.2
01 17:53 SE 26 16.09 Fair CLR 32.8 24.4 61% 39 75.92 1011.9
01 16:53 SE 28 16.09 Fair CLR 33.9 25 60% 42 75.9 1011.9
01 15:53 SE 31 G 44 16.09 Fair CLR 34.4 24.4 56% 42 75.92 1012.2
01 14:53 SE 31 G 44 16.09 Fair CLR 34.4 25 58% 42 76 1012.9
01 13:53 E 35 G 50 16.09 Fair and Breezy CLR 33.9 25 60% 42 76.02 1013.6
01 12:53 SE 28 16.09 A Few Clouds FEW047 35 25 35.6 25.6 56% 43 76.07 1014.2
01 11:53 S 19 G 35 16.09 Fair CLR 34.4 22.2 49% 39 76.12 1014.8
01 10:53 S 19 16.09 Fair CLR 32.8 23.3 57% 38 76.12 1014.9
01 09:53 S 22 16.09 Partly Cloudy FEW021 SCT026 30.6 24.4 70% 36 76.12 1014.8
01 08:53 Vrbl 6 16.09 Fair CLR 27.8 25 85% 32 76.12 1014.8
01 07:53 SE 6 16.09 Fair CLR 25.6 24.4 93% 27 76.07 1014.3
01 06:53 S 6 16.09 Fair CLR 25.6 23.9 27.8 25 90% 27 76.05 1013.7
01 05:53 S 6 16.09 Fair CLR 25.6 23.9 90% 27 76.05 1013.8
01 03:53 S 9 16.09 Fair CLR 26.7 24.4 87% 30 76.05 1013.8
01 02:53 S 7 16.09 Fair CLR 27.2 24.4 85% 31 76.07 1014.1
01 01:53 S 9 16.09 Fair CLR 27.2 24.4 85% 31 76.1 1014.3
01 00:53 S 7 16.09 Fair CLR 27.8 25 30.6 27.8 85% 32 76.12 1014.6
31 23:53 S 11 16.09 Fair CLR 28.3 25 82% 33 76.12 1014.7
31 22:53 SE 13 16.09 Fair CLR 28.3 25 82% 33 76.12 1014.8
31 21:53 SE 19 16.09 Fair CLR 28.9 25 80% 34 76.07 1014.2
31 20:53 SE 13 16.09 Fair CLR 28.9 25 80% 34 76.02 1013.3
31 19:53 SE 26 16.09 Fair CLR 30 24.4 72% 36 75.97 1012.7
31 18:53 SE 26 16.09 Fair CLR 30.6 25 35.6 30.6 72% 37 75.95 1012.4
31 17:53 E 30 16.09 Fair CLR 31.7 25.6 70% 40 75.95 1012.6
31 16:53 E 30 G 43 16.09 Fair CLR 32.8 25.6 66% 41 75.97 1012.8
31 15:53 E 28 16.09 Fair CLR 33.3 25 62% 41 76 1013.1
31 14:53 SE 31 16.09 Fair CLR 33.9 25 60% 42 76.05 1013.7
31 13:53 E 37 G 46 16.09 Light Rain and Breezy CLR 35 24.4 54% 42 76.07 1014.2
31 12:53 SE 30 G 43 16.09 Partly Cloudy SCT045 SCT055 35 24.4 36.1 26.1 54% 42 76.1 1014.4
31 11:53 S 15 G 33 16.09 Fair CLR 35 22.2 47% 40 76.12 1014.8
31 10:53 S 22 G 30 16.09 Fair CLR 33.3 23.3 56% 39 76.12 1014.8
31 09:53 S 19 16.09 Fair CLR 31.1 24.4 68% 37 76.12 1014.7
31 08:53 S 15 16.09 Fair CLR 28.9 25.6 82% 35 76.12 1014.7
31 07:53 S 7 12.87 Fair CLR 26.7 25 90% 30 76.1 1014.3
31 06:53 SE 7 14.48 Fair CLR 26.1 25 28.3 26.1 94% 28 76.05 1013.7
31 05:53 S 7 16.09 Fair CLR 26.1 25 94% 28 76.02 1013.3
31 04:53 SE 7 16.09 A Few Clouds FEW023 26.7 25 90% 30 76.02 1013.5
31 03:53 S 6 16.09 Fair CLR 27.2 25 88% 31 76.05 1013.7
31 02:53 S 9 16.09 Fair CLR 27.8 25 85% 32 76.05 1013.8
31 01:53 S 13 16.09 Fair CLR 27.8 25 85% 32 76.07 1014.2
31 00:53 S 15 16.09 Fair CLR 28.3 25.6 31.1 28.3 85% 34 76.1 1014.5
30 23:53 S 17 16.09 Fair CLR 28.9 25 80% 34 76.1 1014.5
30 22:53 SE 20 16.09 Mostly Cloudy BKN024 BKN029 BKN040 28.9 25.6 82% 35 76.1 1014.3
30 21:53 SE 15 16.09 Partly Cloudy FEW021 SCT027 28.9 26.1 85% 36 76.05 1013.7
30 20:53 SE 19 16.09 Fair CLR 29.4 26.1 82% 36 76 1013.0
30 19:53 SE 20 16.09 Fair CLR 30 25 75% 36 75.97 1012.6
30 18:53 SE 26 16.09 A Few Clouds FEW022 31.1 25 32.8 27.2 70% 38 75.95 1012.3 0.1
30 17:53 SE 28 16.09 Fair CLR 32.2 26.1 70% 41 75.95 1012.3
30 16:53 SE 30 16.09 Fair CLR 32.8 25.6 66% 41 75.95 1012.3
30 15:53 E 33 16.09 Fair and Breezy CLR 32.2 24.4 63% 39 75.97 1012.9 0.1
30 14:53 SE 30 16.09 Fair CLR 32.2 26.1 70% 41 76.05 1013.9
30 13:53 E 22 16.09 Fair CLR 29.4 27.2 88% 38 76.12 1014.7 0.1
30 11:53 SE 20 16.09 Partly Cloudy FEW027 FEW032 SCT042 31.7 25.6 70% 40 76.17 1015.6
30 10:53 SE 17 16.09 Mostly Cloudy SCT030 BKN038 32.2 24.4 63% 39 76.2 1015.7
30 09:53 S 15 16.09 A Few Clouds FEW023 30.6 24.4 70% 36 76.17 1015.5
30 08:53 SE 11 16.09 Fair CLR 28.9 25 80% 34 76.17 1015.4
30 07:53 SE 6 16.09 Fair CLR 26.7 25 90% 30 76.12 1014.9
30 06:53 SE 7 16.09 Fair CLR 26.1 24.4 28.3 25.6 90% 28 76.1 1014.4
30 05:53 SE 7 16.09 Fair CLR 26.1 24.4 90% 28 76.1 1014.4
30 04:53 S 7 16.09 Fair CLR 26.1 24.4 90% 28 76.1 1014.5
30 03:53 Calm 16.09 Fair CLR 26.7 24.4 87% 30 76.12 1014.7
30 02:53 S 9 16.09 Fair CLR 27.2 25 88% 31 76.15 1015.0
30 01:53 S 7 16.09 Partly Cloudy SCT026 27.8 25.6 88% 33 76.15 1015.3
30 00:53 S 11 16.09 Fair CLR 28.3 25 30.6 28.3 82% 33 76.17 1015.4
29 23:53 SE 15 16.09 Fair CLR 28.9 25.6 82% 35 76.17 1015.6
29 22:53 SE 15 16.09 A Few Clouds FEW026 28.9 25 80% 34 76.17 1015.5
29 21:53 SE 17 16.09 Fair CLR 29.4 25 77% 35 76.17 1015.4
Date Time (cdt) Wind (kph) Vis. (km) Weather Sky Cond. Air Dwpt Max. Min. Relative Humidity Wind Chill (°C) Heat Index (°C) altimeter (cm) sea level (mb) 1 hr 3 hr 6 hr
6 hour
Temperature (ºC) Pressure Precipitation (cm)